Thor, South Carolina
Current Conditions -  °F | °C
As of 7:56 AM on Saturday 20 Dec 2014 (Local Time) from KCAE Reporting Station
Light Rain Light Rain  
Wind Chill: 46°   Ceiling: 6500
Heat Index: 46°   Visibility: 7mi
Dew Point: 42°   Wind: 3mph
Humidity: 86%   Direction: 40°NE
Pressure: 30.2"   Gusts: NA
Location:  33.7682°N, 81.2599°W
Report Text: KCAE 201256Z 04003KT 7SM -RA OVC065 08/06 A3020 RMK AO2 RAB15 SLP228 P0000 T00780056
Loading
Personal Weather Stations






























Interactive Weather Map New forecast layout! Learn more

10-Day Weather Forecast

Advertisements
Track Severe Weather on mobile